createdAt,value
2018-11-23T00:01:34.406Z,61.93
2018-11-23T00:04:04.755Z,72.77
2018-11-23T00:06:33.935Z,55.77
2018-11-23T00:09:03.083Z,55.83
2018-11-23T00:11:32.221Z,56.70
2018-11-23T00:14:01.585Z,71.20
2018-11-23T00:16:30.734Z,52.07
2018-11-23T00:18:59.923Z,65.53
2018-11-23T00:21:29.130Z,57.07
2018-11-23T00:23:58.357Z,77.07
2018-11-23T00:26:27.502Z,71.60
2018-11-23T00:28:56.711Z,68.20
2018-11-23T00:31:25.860Z,72.40
2018-11-23T00:33:54.990Z,58.53
2018-11-23T00:36:24.178Z,72.23
2018-11-23T00:38:53.319Z,67.33
2018-11-23T00:41:22.453Z,68.03
2018-11-23T00:43:51.647Z,65.00
2018-11-23T00:46:20.813Z,68.17
2018-11-23T00:48:49.964Z,80.57
2018-11-23T00:51:19.270Z,66.87
2018-11-23T00:53:48.418Z,67.47
2018-11-23T00:56:17.562Z,73.60
2018-11-23T00:58:46.746Z,72.53
2018-11-23T01:01:15.886Z,62.97
2018-11-23T01:03:45.038Z,69.67
2018-11-23T01:06:14.215Z,58.80
2018-11-23T01:08:43.370Z,77.67
2018-11-23T01:11:12.590Z,62.97
2018-11-23T01:13:41.822Z,77.77
2018-11-23T01:16:10.970Z,75.40
2018-11-23T01:18:40.121Z,73.80
2018-11-23T01:21:09.351Z,65.20
2018-11-23T01:23:38.505Z,57.60
2018-11-23T01:26:07.669Z,65.37
2018-11-23T01:28:36.859Z,81.23
2018-11-23T01:31:06.038Z,69.80
2018-11-23T01:33:35.272Z,62.80
2018-11-23T01:36:04.714Z,80.93
2018-11-23T01:38:33.849Z,76.37
2018-11-23T01:41:03.035Z,76.97
2018-11-23T01:43:32.218Z,71.23
2018-11-23T01:46:01.371Z,63.90
2018-11-23T01:48:30.529Z,79.90
2018-11-23T01:50:59.741Z,53.20
2018-11-23T01:53:29.238Z,59.77
2018-11-23T01:55:58.397Z,53.90
2018-11-23T01:58:27.571Z,74.60
2018-11-23T02:00:56.729Z,49.10
2018-11-23T02:03:25.882Z,89.17
2018-11-23T02:05:55.275Z,68.67
2018-11-23T02:08:24.417Z,64.10
2018-11-23T02:10:53.778Z,58.57
2018-11-23T02:13:22.966Z,79.50
2018-11-23T02:15:52.162Z,74.80
2018-11-23T02:18:21.328Z,66.43
2018-11-23T02:20:50.502Z,52.73
2018-11-23T02:23:19.662Z,63.40
2018-11-23T02:25:48.816Z,72.90
2018-11-23T02:28:17.996Z,74.23
2018-11-23T02:30:47.310Z,78.27
2018-11-23T02:33:16.469Z,67.77
2018-11-23T02:35:45.655Z,84.60
2018-11-23T02:38:14.843Z,71.80
2018-11-23T02:40:44.039Z,70.33
2018-11-23T02:43:13.222Z,78.63
2018-11-23T02:45:42.362Z,70.40
2018-11-23T02:48:11.499Z,76.33
2018-11-23T02:50:40.675Z,74.17
2018-11-23T02:53:09.835Z,57.50
2018-11-23T02:55:39.039Z,81.40
2018-11-23T02:58:08.247Z,84.10
2018-11-23T03:00:37.388Z,91.13
2018-11-23T03:03:06.792Z,49.83
2018-11-23T03:05:35.978Z,89.67
2018-11-23T03:08:05.175Z,85.83
2018-11-23T03:10:34.356Z,78.20
2018-11-23T03:13:03.543Z,84.60
2018-11-23T03:15:32.715Z,48.67
2018-11-23T03:18:01.872Z,66.10
2018-11-23T03:20:31.051Z,55.00
2018-11-23T03:23:00.202Z,67.47
2018-11-23T03:25:29.339Z,80.53
2018-11-23T03:27:58.535Z,68.73
2018-11-23T03:30:27.674Z,59.90
2018-11-23T03:32:56.819Z,68.80
2018-11-23T03:35:25.994Z,76.17
2018-11-23T03:37:55.134Z,67.73
2018-11-23T03:40:24.284Z,53.27
2018-11-23T03:42:53.711Z,56.07
2018-11-23T03:45:22.859Z,68.83
2018-11-23T03:47:52.020Z,79.37
2018-11-23T03:50:21.227Z,66.73
2018-11-23T03:52:50.486Z,85.97
2018-11-23T03:55:19.631Z,84.90
2018-11-23T03:57:49.132Z,83.60
2018-11-23T04:00:19.807Z,106.13
2018-11-23T04:02:49.486Z,91.37
2018-11-23T04:05:18.919Z,79.37
2018-11-23T04:07:48.073Z,60.93
2018-11-23T04:10:17.752Z,86.77
2018-11-23T04:12:47.139Z,80.17
2018-11-23T04:15:16.526Z,67.93
2018-11-23T04:17:45.711Z,64.67
2018-11-23T04:20:16.153Z,90.03
2018-11-23T04:22:45.334Z,66.47
2018-11-23T04:25:14.887Z,54.40
2018-11-23T04:27:44.458Z,94.03
2018-11-23T04:30:15.345Z,90.03
2018-11-23T04:32:45.015Z,74.87
2018-11-23T04:35:15.324Z,86.63
2018-11-23T04:37:45.572Z,97.23
2018-11-23T04:40:15.453Z,63.43
2018-11-23T04:42:44.637Z,96.40
2018-11-23T04:45:14.284Z,94.90
2018-11-23T04:47:43.447Z,63.50
2018-11-23T04:50:14.355Z,78.13
2018-11-23T04:52:43.802Z,65.20
2018-11-23T04:55:12.952Z,60.90
2018-11-23T04:57:42.746Z,64.13
2018-11-23T05:00:14.635Z,75.67
2018-11-23T05:02:44.506Z,59.10
2018-11-23T05:05:14.085Z,86.70
2018-11-23T05:07:44.681Z,95.83
2018-11-23T05:10:14.930Z,85.20
2018-11-23T05:12:44.150Z,57.53
2018-11-23T05:15:14.653Z,92.33
2018-11-23T05:17:44.160Z,93.47
2018-11-23T05:20:13.999Z,71.67
2018-11-23T05:22:43.375Z,70.03
2018-11-23T05:25:14.200Z,78.73
2018-11-23T05:27:43.381Z,80.43
2018-11-23T05:30:17.199Z,99.23
2018-11-23T05:32:46.350Z,94.83
2018-11-23T05:35:16.439Z,58.97
2018-11-23T05:37:45.752Z,100.63
2018-11-23T05:40:17.174Z,87.97
2018-11-23T05:42:46.342Z,67.63
2018-11-23T05:45:16.897Z,116.80
2018-11-23T05:47:46.256Z,79.37
2018-11-23T05:50:21.050Z,104.13
2018-11-23T05:52:50.295Z,116.37
2018-11-23T05:55:19.426Z,97.30
2018-11-23T05:57:48.813Z,91.83
2018-11-23T06:00:25.710Z,94.57
2018-11-23T06:02:55.031Z,91.83
2018-11-23T06:05:24.177Z,87.17
2018-11-23T06:07:53.474Z,118.83
2018-11-23T06:10:23.104Z,93.87
2018-11-23T06:12:52.316Z,107.67
2018-11-23T06:15:22.657Z,73.97
2018-11-23T06:17:52.024Z,98.27
2018-11-23T06:20:24.280Z,90.33
2018-11-23T06:22:54.283Z,130.07
2018-11-23T06:25:37.942Z,80.37
2018-11-23T06:28:07.230Z,121.30
2018-11-23T06:30:36.415Z,104.27
2018-11-23T06:33:27.583Z,112.70
2018-11-23T06:35:56.733Z,77.00
2018-11-23T06:38:25.889Z,84.73
2018-11-23T06:40:55.079Z,74.13
2018-11-23T06:43:24.301Z,115.67
2018-11-23T06:45:53.454Z,113.50
2018-11-23T06:48:22.637Z,119.43
2018-11-23T06:50:51.797Z,118.13
2018-11-23T06:53:20.953Z,87.13
2018-11-23T06:55:50.210Z,72.70
2018-11-23T06:58:19.380Z,88.30
2018-11-23T07:00:48.578Z,115.27
2018-11-23T07:03:17.746Z,90.77
2018-11-23T07:05:46.947Z,88.57
2018-11-23T07:08:16.134Z,95.30
2018-11-23T07:10:45.322Z,91.00
2018-11-23T07:13:14.530Z,99.63
2018-11-23T07:15:43.709Z,88.90
2018-11-23T07:18:12.946Z,107.50
2018-11-23T07:20:42.137Z,100.40
2018-11-23T07:23:11.506Z,75.80
2018-11-23T07:25:40.785Z,71.80
2018-11-23T07:28:15.461Z,91.13
2018-11-23T07:30:39.429Z,88.10
2018-11-23T07:33:08.621Z,73.40
2018-11-23T07:35:37.786Z,82.80
2018-11-23T07:38:07.115Z,129.67
2018-11-23T07:40:54.143Z,126.67
2018-11-23T07:43:23.291Z,106.93
2018-11-23T07:45:52.459Z,103.30
2018-11-23T07:48:21.647Z,100.93
2018-11-23T07:50:50.807Z,100.63
2018-11-23T07:53:19.976Z,85.53
2018-11-23T07:55:49.189Z,105.17
2018-11-23T07:58:18.351Z,130.93
2018-11-23T08:00:47.502Z,109.23
2018-11-23T08:03:16.707Z,106.83
2018-11-23T08:05:45.863Z,80.30
2018-11-23T08:08:15.182Z,82.20
2018-11-23T08:10:43.529Z,76.47
2018-11-23T08:13:12.718Z,82.37
2018-11-23T08:15:41.886Z,93.90
2018-11-23T08:18:11.074Z,87.30
2018-11-23T08:20:40.223Z,102.43
2018-11-23T08:23:09.376Z,98.27
2018-11-23T08:25:38.648Z,97.43
2018-11-23T08:28:07.790Z,74.87
2018-11-23T08:30:36.949Z,89.37
2018-11-23T08:33:06.305Z,99.33
2018-11-23T08:35:35.447Z,88.83
2018-11-23T08:38:04.606Z,118.30
2018-11-23T08:40:34.036Z,84.67
2018-11-23T08:43:03.187Z,89.37
2018-11-23T08:45:32.346Z,122.67
2018-11-23T08:48:01.524Z,116.03
2018-11-23T08:50:31.432Z,94.33
2018-11-23T08:53:00.613Z,99.37
2018-11-23T08:55:29.813Z,102.80
2018-11-23T08:57:58.991Z,90.83
2018-11-23T09:00:29.010Z,124.73
2018-11-23T09:03:00.705Z,84.77
2018-11-23T09:05:29.890Z,131.80
2018-11-23T09:07:59.410Z,115.83
2018-11-23T09:10:30.509Z,86.50
2018-11-23T09:13:02.905Z,98.83
2018-11-23T09:15:32.066Z,109.90
2018-11-23T09:18:01.234Z,91.13
2018-11-23T09:20:30.437Z,142.33
2018-11-23T09:22:59.616Z,113.13
2018-11-23T09:25:28.790Z,136.07
2018-11-23T09:27:58.229Z,113.67
2018-11-23T09:30:27.681Z,136.93
2018-11-23T09:32:57.382Z,120.07
2018-11-23T09:35:27.243Z,122.70
2018-11-23T09:37:56.410Z,91.70
2018-11-23T09:40:27.055Z,81.00
2018-11-23T09:42:56.734Z,136.17
2018-11-23T09:45:27.488Z,146.03
2018-11-23T09:47:58.294Z,131.87
2018-11-23T09:50:28.046Z,130.30
2018-11-23T09:52:58.603Z,123.70
2018-11-23T09:55:28.794Z,85.47
2018-11-23T09:57:57.950Z,141.43
2018-11-23T10:00:28.723Z,123.07
2018-11-23T10:02:58.851Z,135.43
2018-11-23T10:05:28.818Z,120.53
2018-11-23T10:07:59.586Z,143.60
2018-11-23T10:10:29.579Z,85.37
2018-11-23T10:12:58.736Z,85.00
2018-11-23T10:15:29.120Z,132.67
2018-11-23T10:17:58.270Z,112.90
2018-11-23T10:20:28.813Z,131.70
2018-11-23T10:22:57.991Z,102.23
2018-11-23T10:25:28.647Z,117.67
2018-11-23T10:27:58.077Z,94.27
2018-11-23T10:30:29.528Z,135.30
2018-11-23T10:33:00.246Z,144.00
2018-11-23T10:35:29.631Z,169.27
2018-11-23T10:38:00.282Z,132.87
2018-11-23T10:40:31.195Z,98.63
2018-11-23T10:43:00.406Z,132.23
2018-11-23T10:45:30.922Z,131.00
2018-11-23T10:48:01.075Z,159.70
2018-11-23T10:50:31.775Z,160.47
2018-11-23T10:53:00.951Z,132.23
2018-11-23T10:55:31.503Z,135.37
2018-11-23T10:58:00.663Z,154.10
2018-11-23T11:00:35.155Z,155.77
2018-11-23T11:03:08.457Z,155.23
2018-11-23T11:05:43.101Z,160.77
2018-11-23T11:08:13.114Z,142.23
2018-11-23T11:10:42.372Z,127.97
2018-11-23T11:13:11.990Z,134.50
2018-11-23T11:15:42.244Z,153.27
2018-11-23T11:18:11.394Z,162.27
2018-11-23T11:20:40.602Z,134.63
2018-11-23T11:23:09.818Z,129.40
2018-11-23T11:25:38.959Z,170.90
2018-11-23T11:28:08.161Z,140.93
2018-11-23T11:30:37.306Z,128.13
2018-11-23T11:33:06.495Z,143.17
2018-11-23T11:35:35.690Z,121.27
2018-11-23T11:38:04.866Z,155.13
2018-11-23T11:40:34.023Z,137.67
2018-11-23T11:43:03.200Z,129.50
2018-11-23T11:45:32.366Z,147.03
2018-11-23T11:48:01.523Z,121.70
2018-11-23T11:50:30.718Z,138.80
2018-11-23T11:52:59.876Z,151.60
2018-11-23T11:55:29.023Z,153.17
2018-11-23T11:57:58.188Z,157.83
2018-11-23T12:00:27.622Z,157.30
2018-11-23T12:02:56.923Z,153.27
2018-11-23T12:05:26.118Z,157.17
2018-11-23T12:07:55.288Z,153.10
2018-11-23T12:10:25.745Z,160.23
2018-11-23T12:12:55.093Z,156.37
2018-11-23T12:15:24.263Z,131.40
2018-11-23T12:17:53.403Z,148.37
2018-11-23T12:20:23.897Z,140.87
2018-11-23T12:22:53.262Z,156.53
2018-11-23T12:25:23.001Z,140.53
2018-11-23T12:27:52.263Z,158.57
2018-11-23T12:30:22.144Z,136.97
2018-11-23T12:32:52.207Z,159.50
2018-11-23T12:35:21.958Z,131.40
2018-11-23T12:37:51.243Z,144.57
2018-11-23T12:40:21.086Z,123.77
2018-11-23T12:42:50.522Z,130.23
2018-11-23T12:45:21.189Z,130.00
2018-11-23T12:47:50.350Z,107.63
2018-11-23T12:50:21.334Z,127.27
2018-11-23T12:52:50.525Z,115.63
2018-11-23T12:55:20.241Z,132.83
2018-11-23T12:57:49.432Z,124.57
2018-11-23T13:00:21.867Z,146.50
2018-11-23T13:02:52.303Z,117.50
2018-11-23T13:05:22.545Z,150.90
2018-11-23T13:07:52.537Z,126.60
2018-11-23T13:10:22.291Z,118.17
2018-11-23T13:12:51.481Z,104.93
2018-11-23T13:15:20.665Z,117.53
2018-11-23T13:17:49.886Z,129.17
2018-11-23T13:20:19.079Z,136.83
2018-11-23T13:22:48.266Z,141.53
2018-11-23T13:25:19.064Z,100.17
2018-11-23T13:27:48.311Z,110.80
2018-11-23T13:30:21.017Z,122.37
2018-11-23T13:32:50.243Z,123.67
2018-11-23T13:35:19.951Z,132.00
2018-11-23T13:37:49.152Z,123.87
2018-11-23T13:40:19.670Z,110.47
2018-11-23T13:42:49.439Z,119.33
2018-11-23T13:45:20.122Z,136.93
2018-11-23T13:47:49.298Z,118.17
2018-11-23T13:50:22.529Z,117.27
2018-11-23T13:52:52.931Z,110.67
2018-11-23T13:55:22.133Z,122.87
2018-11-23T13:57:51.370Z,142.13
2018-11-23T14:00:22.662Z,129.00
2018-11-23T14:02:51.862Z,112.33
2018-11-23T14:05:22.503Z,145.20
2018-11-23T14:07:53.162Z,101.80
2018-11-23T14:10:23.562Z,90.73
2018-11-23T14:12:52.959Z,100.37
2018-11-23T14:15:23.497Z,107.83
2018-11-23T14:17:53.741Z,121.57
2018-11-23T14:20:23.825Z,105.97
2018-11-23T14:22:53.012Z,121.50
2018-11-23T14:25:23.550Z,131.53
2018-11-23T14:27:53.275Z,111.17
2018-11-23T14:30:23.784Z,115.57
2018-11-23T14:32:53.217Z,121.17
2018-11-23T14:35:23.814Z,115.87
2018-11-23T14:37:53.890Z,118.53
2018-11-23T14:40:23.046Z,97.47
2018-11-23T14:42:52.558Z,121.27
2018-11-23T14:45:25.654Z,93.00
2018-11-23T14:47:56.156Z,110.03
2018-11-23T14:50:27.341Z,106.57
2018-11-23T14:52:57.210Z,116.77
2018-11-23T14:55:26.656Z,91.87
2018-11-23T14:57:56.377Z,107.50
2018-11-23T15:00:29.702Z,127.93
2018-11-23T15:03:00.178Z,127.50
2018-11-23T15:05:29.336Z,101.17
2018-11-23T15:07:58.538Z,119.40
2018-11-23T15:10:28.918Z,97.10
2018-11-23T15:12:59.400Z,100.60
2018-11-23T15:15:34.190Z,128.50
2018-11-23T15:18:03.445Z,108.07
2018-11-23T15:20:35.072Z,119.13
2018-11-23T15:23:09.510Z,121.53
2018-11-23T15:25:39.071Z,132.87
2018-11-23T15:28:09.286Z,133.57
2018-11-23T15:30:39.158Z,113.33
2018-11-23T15:33:09.558Z,144.97
2018-11-23T15:35:39.690Z,143.67
2018-11-23T15:38:11.927Z,139.90
2018-11-23T15:40:41.143Z,112.40
2018-11-23T15:43:11.822Z,116.93
2018-11-23T15:45:41.069Z,126.73
2018-11-23T15:48:10.797Z,115.20
2018-11-23T15:50:41.037Z,122.77
2018-11-23T15:53:12.222Z,129.23
2018-11-23T15:55:41.782Z,125.07
2018-11-23T15:58:15.356Z,107.00
2018-11-23T16:00:45.914Z,119.87
2018-11-23T16:03:16.001Z,123.50
2018-11-23T16:05:45.204Z,116.03
2018-11-23T16:08:17.607Z,117.80
2018-11-23T16:10:46.774Z,130.03
2018-11-23T16:13:16.105Z,149.43
2018-11-23T16:15:45.346Z,127.40
2018-11-23T16:18:14.758Z,135.37
2018-11-23T16:20:45.447Z,120.77
2018-11-23T16:23:16.540Z,114.33
2018-11-23T16:25:46.524Z,145.93
2018-11-23T16:28:15.711Z,114.03
2018-11-23T16:30:46.309Z,124.43
2018-11-23T16:33:17.558Z,108.37
2018-11-23T16:35:46.848Z,107.63
2018-11-23T16:38:18.118Z,109.77
2018-11-23T16:40:48.907Z,114.47
2018-11-23T16:43:18.380Z,124.43
2018-11-23T16:45:47.814Z,112.80
2018-11-23T16:48:17.627Z,107.07
2018-11-23T16:50:47.053Z,89.40
2018-11-23T16:53:16.771Z,113.47
2018-11-23T16:55:45.935Z,111.57
2018-11-23T16:58:15.477Z,87.70
2018-11-23T17:00:46.124Z,75.27
2018-11-23T17:03:16.994Z,91.70
2018-11-23T17:05:48.346Z,92.40
2018-11-23T17:08:17.586Z,90.40
2018-11-23T17:10:46.954Z,106.53
2018-11-23T17:13:17.131Z,103.43
2018-11-23T17:15:46.343Z,94.93
2018-11-23T17:18:15.571Z,107.70
2018-11-23T17:20:44.758Z,87.10
2018-11-23T17:23:14.144Z,96.97
2018-11-23T17:25:43.308Z,85.57
2018-11-23T17:28:13.186Z,81.23
2018-11-23T17:30:42.336Z,95.20
2018-11-23T17:33:11.482Z,90.53
2018-11-23T17:35:40.689Z,105.63
2018-11-23T17:38:10.623Z,98.53
2018-11-23T17:40:40.927Z,105.17
2018-11-23T17:43:10.515Z,100.77
2018-11-23T17:45:39.909Z,79.87
2018-11-23T17:48:09.057Z,93.03
2018-11-23T17:50:39.391Z,99.43
2018-11-23T17:53:08.545Z,96.50
2018-11-23T17:55:37.733Z,84.40
2018-11-23T17:58:06.938Z,79.93
2018-11-23T18:00:39.304Z,96.30
2018-11-23T18:03:05.880Z,85.73
2018-11-23T18:05:35.659Z,86.27
2018-11-23T18:08:05.901Z,101.13
2018-11-23T18:10:35.412Z,84.60
2018-11-23T18:13:04.605Z,86.20
2018-11-23T18:15:34.791Z,96.73
2018-11-23T18:18:04.693Z,86.10
2018-11-23T18:20:34.302Z,81.13
2018-11-23T18:23:04.239Z,85.13
2018-11-23T18:25:35.171Z,86.83
2018-11-23T18:28:04.378Z,84.53
2018-11-23T18:30:34.643Z,73.67
2018-11-23T18:33:06.170Z,70.37
2018-11-23T18:35:35.423Z,70.63
2018-11-23T18:38:04.634Z,88.23
2018-11-23T18:40:37.250Z,79.93
2018-11-23T18:43:03.040Z,66.60
2018-11-23T18:45:32.238Z,87.33
2018-11-23T18:48:01.439Z,68.73
2018-11-23T18:50:30.633Z,70.87
2018-11-23T18:52:59.828Z,82.40
2018-11-23T18:55:28.974Z,71.03
2018-11-23T18:57:58.166Z,80.37
2018-11-23T19:00:27.339Z,72.13
2018-11-23T19:02:56.493Z,72.60
2018-11-23T19:05:28.038Z,69.07
2018-11-23T19:07:57.240Z,58.97
2018-11-23T19:10:26.564Z,60.20
2018-11-23T19:12:55.863Z,52.73
2018-11-23T19:15:25.936Z,59.00
2018-11-23T19:17:55.287Z,55.83
2018-11-23T19:20:24.798Z,52.00
2018-11-23T19:22:55.286Z,57.77
2018-11-23T19:25:24.463Z,48.53
2018-11-23T19:27:53.615Z,47.23
2018-11-23T19:30:28.777Z,45.90
2018-11-23T19:32:54.042Z,48.40
2018-11-23T19:35:23.359Z,46.17
2018-11-23T19:37:52.744Z,51.27
2018-11-23T19:40:21.997Z,44.50
2018-11-23T19:42:51.525Z,45.73
2018-11-23T19:45:20.718Z,43.70
2018-11-23T19:47:49.888Z,40.07
2018-11-23T19:50:19.328Z,38.20
2018-11-23T19:52:48.534Z,42.70
2018-11-23T19:55:18.448Z,40.40
2018-11-23T19:57:47.760Z,42.57
2018-11-23T20:00:21.800Z,41.43
2018-11-23T20:02:50.986Z,42.80
2018-11-23T20:05:20.175Z,38.83
2018-11-23T20:07:51.311Z,41.47
2018-11-23T20:10:21.796Z,39.93
2018-11-23T20:12:53.129Z,37.60
2018-11-23T20:15:23.435Z,42.40
2018-11-23T20:17:52.652Z,42.37
2018-11-23T20:20:21.848Z,36.73
2018-11-23T20:22:51.623Z,44.53
2018-11-23T20:25:21.682Z,35.63
2018-11-23T20:27:52.678Z,36.70
2018-11-23T20:30:21.916Z,36.60
2018-11-23T20:32:51.163Z,37.57
2018-11-23T20:35:22.878Z,30.70
2018-11-23T20:37:52.034Z,41.40
2018-11-23T20:40:22.883Z,36.27
2018-11-23T20:42:52.135Z,33.83
2018-11-23T20:45:21.362Z,43.43
2018-11-23T20:47:50.575Z,40.20
2018-11-23T20:50:19.907Z,36.10
2018-11-23T20:52:49.097Z,35.87
2018-11-23T20:55:22.460Z,36.63
2018-11-23T20:57:51.706Z,35.40
2018-11-23T21:00:22.610Z,47.43
2018-11-23T21:02:52.880Z,36.50
2018-11-23T21:05:22.786Z,30.13
2018-11-23T21:07:52.398Z,39.60
2018-11-23T21:10:24.990Z,41.30
2018-11-23T21:12:55.207Z,33.73
2018-11-23T21:15:26.216Z,36.60
2018-11-23T21:17:55.945Z,32.07
2018-11-23T21:20:27.208Z,41.27
2018-11-23T21:22:57.454Z,34.73
2018-11-23T21:25:26.651Z,36.77
2018-11-23T21:27:55.991Z,34.13
2018-11-23T21:30:25.404Z,40.53
2018-11-23T21:32:56.246Z,35.00
2018-11-23T21:35:25.992Z,37.80
2018-11-23T21:37:55.216Z,38.97
2018-11-23T21:40:24.422Z,41.30
2018-11-23T21:42:53.642Z,48.80
2018-11-23T21:45:23.483Z,52.47
2018-11-23T21:47:53.699Z,51.13
2018-11-23T21:50:25.624Z,45.30
2018-11-23T21:52:52.155Z,39.63
2018-11-23T21:55:23.035Z,46.33
2018-11-23T21:57:54.330Z,48.73
2018-11-23T22:00:23.638Z,48.90
2018-11-23T22:02:52.809Z,43.67
2018-11-23T22:05:21.985Z,42.90
2018-11-23T22:07:51.166Z,37.23
2018-11-23T22:10:20.983Z,44.50
2018-11-23T22:12:50.843Z,38.30
2018-11-23T22:15:23.809Z,43.60
2018-11-23T22:17:55.501Z,42.80
2018-11-23T22:20:25.702Z,34.43
2018-11-23T22:22:55.220Z,40.63
2018-11-23T22:25:24.832Z,48.63
2018-11-23T22:27:54.003Z,40.23
2018-11-23T22:30:30.052Z,42.93
2018-11-23T22:32:59.742Z,42.47
2018-11-23T22:35:30.260Z,39.13
2018-11-23T22:37:59.483Z,50.10
2018-11-23T22:40:28.642Z,49.67
2018-11-23T22:42:59.137Z,41.43
2018-11-23T22:45:28.375Z,41.40
2018-11-23T22:47:58.410Z,35.50
2018-11-23T22:50:27.628Z,40.37
2018-11-23T22:52:56.838Z,38.83
2018-11-23T22:55:26.059Z,35.70
2018-11-23T22:57:55.216Z,35.73
2018-11-23T23:00:32.146Z,44.77
2018-11-23T23:03:01.324Z,42.80
2018-11-23T23:05:30.884Z,36.43
2018-11-23T23:08:00.043Z,29.33
2018-11-23T23:10:29.194Z,41.53
2018-11-23T23:12:58.388Z,39.07
2018-11-23T23:15:27.537Z,39.70
2018-11-23T23:17:56.762Z,32.97
2018-11-23T23:20:25.926Z,42.00
2018-11-23T23:22:55.118Z,40.03
2018-11-23T23:25:24.285Z,41.07
2018-11-23T23:27:53.531Z,39.93
2018-11-23T23:30:22.678Z,38.90
2018-11-23T23:32:51.874Z,38.40
2018-11-23T23:35:21.082Z,44.90
2018-11-23T23:37:50.226Z,34.60
2018-11-23T23:40:19.434Z,40.20
2018-11-23T23:42:49.001Z,37.20
2018-11-23T23:45:19.109Z,35.60
2018-11-23T23:47:48.281Z,35.67
2018-11-23T23:50:19.174Z,33.70
2018-11-23T23:52:48.518Z,30.60
2018-11-23T23:55:17.958Z,45.00
2018-11-23T23:57:47.961Z,39.70
